createdAt,value
2023-03-14T00:00:35.039Z,66.87
2023-03-14T00:03:11.976Z,67.22
2023-03-14T00:05:49.312Z,67.04
2023-03-14T00:08:22.498Z,66.99
2023-03-14T00:10:51.557Z,66.94
2023-03-14T00:13:24.494Z,66.90
2023-03-14T00:15:56.274Z,67.15
2023-03-14T00:18:27.013Z,67.33
2023-03-14T00:21:07.070Z,67.55
2023-03-14T00:23:44.066Z,67.63
2023-03-14T00:26:20.451Z,67.83
2023-03-14T00:28:56.132Z,67.77
2023-03-14T00:31:26.795Z,67.93
2023-03-14T00:33:56.845Z,67.96
2023-03-14T00:36:33.852Z,68.57
2023-03-14T00:39:04.280Z,68.68
2023-03-14T00:41:39.013Z,68.72
2023-03-14T00:44:13.133Z,68.83
2023-03-14T00:46:43.763Z,68.99
2023-03-14T00:49:24.835Z,69.21
2023-03-14T00:51:55.764Z,69.30
2023-03-14T00:54:26.563Z,69.45
2023-03-14T00:56:58.187Z,69.21
2023-03-14T00:59:29.026Z,69.29
2023-03-14T01:01:58.967Z,69.62
2023-03-14T01:04:36.260Z,70.03
2023-03-14T01:07:10.981Z,69.99
2023-03-14T01:09:43.923Z,70.04
2023-03-14T01:12:19.399Z,70.28
2023-03-14T01:14:50.272Z,70.66
2023-03-14T01:17:19.932Z,70.67
2023-03-14T01:19:57.075Z,70.31
2023-03-14T01:22:32.115Z,70.53
2023-03-14T01:25:09.780Z,70.84
2023-03-14T01:27:39.876Z,70.76
2023-03-14T01:30:11.273Z,70.75
2023-03-14T01:32:50.943Z,71.29
2023-03-14T01:35:24.375Z,71.20
2023-03-14T01:37:55.279Z,71.53
2023-03-14T01:40:26.641Z,71.99
2023-03-14T01:42:58.870Z,71.74
2023-03-14T01:46:13.519Z,72.18
2023-03-14T01:48:47.545Z,72.00
2023-03-14T01:51:20.492Z,72.00
2023-03-14T01:53:50.503Z,72.52
2023-03-14T01:56:28.125Z,71.97
2023-03-14T01:59:04.759Z,72.08
2023-03-14T02:01:38.972Z,72.18
2023-03-14T02:04:15.451Z,72.46
2023-03-14T02:07:00.279Z,72.44
2023-03-14T02:09:39.805Z,72.63
2023-03-14T02:12:18.715Z,72.69
2023-03-14T02:15:03.079Z,72.45
2023-03-14T02:17:47.737Z,72.33
2023-03-14T02:20:49.984Z,72.68
2023-03-14T02:23:22.695Z,72.58
2023-03-14T02:26:11.780Z,72.59
2023-03-14T02:28:49.850Z,72.57
2023-03-14T02:31:22.857Z,72.68
2023-03-14T02:33:56.329Z,72.86
2023-03-14T02:36:26.591Z,72.64
2023-03-14T02:39:00.997Z,72.84
2023-03-14T02:41:32.790Z,72.28
2023-03-14T02:44:07.227Z,71.96
2023-03-14T02:46:37.772Z,72.61
2023-03-14T02:49:15.653Z,72.83
2023-03-14T02:51:46.630Z,72.98
2023-03-14T02:54:24.134Z,72.82
2023-03-14T02:56:58.120Z,72.63
2023-03-14T02:59:33.255Z,72.56
2023-03-14T03:02:22.929Z,72.92
2023-03-14T03:05:04.836Z,73.17
2023-03-14T03:07:34.628Z,73.03
2023-03-14T03:10:05.123Z,73.66
2023-03-14T03:12:34.819Z,75.06
2023-03-14T03:15:11.412Z,73.98
2023-03-14T03:17:41.261Z,73.60
2023-03-14T03:20:19.256Z,73.37
2023-03-14T03:22:50.101Z,73.49
2023-03-14T03:25:19.708Z,74.23
2023-03-14T03:27:50.235Z,74.09
2023-03-14T03:30:25.448Z,73.07
2023-03-14T03:32:56.062Z,73.67
2023-03-14T03:35:31.024Z,74.23
2023-03-14T03:37:59.856Z,73.50
2023-03-14T03:40:30.244Z,73.26
2023-03-14T03:43:01.788Z,73.18
2023-03-14T03:45:41.506Z,73.34
2023-03-14T03:48:09.889Z,73.58
2023-03-14T03:50:41.722Z,73.53
2023-03-14T03:53:15.592Z,72.25
2023-03-14T03:55:52.566Z,70.56
2023-03-14T03:58:23.822Z,69.42
2023-03-14T04:01:08.227Z,68.07
2023-03-14T04:03:37.123Z,67.29
2023-03-14T04:06:11.728Z,66.43
2023-03-14T04:08:44.600Z,66.61
2023-03-14T04:11:38.218Z,67.34
2023-03-14T04:14:21.014Z,67.34
2023-03-14T04:16:54.686Z,68.38
2023-03-14T04:19:23.030Z,68.39
2023-03-14T04:21:56.720Z,68.52
2023-03-14T04:24:42.731Z,69.00
2023-03-14T04:27:14.540Z,69.65
2023-03-14T04:29:46.301Z,69.09
2023-03-14T04:32:26.827Z,69.30
2023-03-14T04:35:01.842Z,69.52
2023-03-14T04:37:36.084Z,70.22
2023-03-14T04:40:10.385Z,69.84
2023-03-14T04:42:40.668Z,69.16
2023-03-14T04:45:17.828Z,69.28
2023-03-14T04:47:48.324Z,69.34
2023-03-14T04:50:22.373Z,68.68
2023-03-14T04:52:51.168Z,69.28
2023-03-14T04:55:29.758Z,69.30
2023-03-14T04:57:59.063Z,69.36
2023-03-14T05:00:31.600Z,69.38
2023-03-14T05:03:08.493Z,69.21
2023-03-14T05:06:12.584Z,69.08
2023-03-14T05:09:07.310Z,67.86
2023-03-14T05:11:56.225Z,67.82
2023-03-14T05:14:46.430Z,68.10
2023-03-14T05:17:46.979Z,67.78
2023-03-14T05:20:36.687Z,68.03
2023-03-14T05:23:39.537Z,67.88
2023-03-14T05:26:18.484Z,67.36
2023-03-14T05:29:10.944Z,67.15
2023-03-14T05:32:01.310Z,66.90
2023-03-14T05:34:59.134Z,66.88
2023-03-14T05:37:58.373Z,66.66
2023-03-14T05:40:53.277Z,67.31
2023-03-14T05:43:59.059Z,67.83
2023-03-14T05:46:57.119Z,67.66
2023-03-14T05:50:00.512Z,67.71
2023-03-14T05:52:54.359Z,67.69
2023-03-14T05:55:46.620Z,68.04
2023-03-14T05:58:43.829Z,67.33
2023-03-14T06:01:38.711Z,67.28
2023-03-14T06:04:24.514Z,67.61
2023-03-14T06:07:04.534Z,67.34
2023-03-14T06:09:50.598Z,67.52
2023-03-14T06:12:33.635Z,67.39
2023-03-14T06:15:05.323Z,67.01
2023-03-14T06:17:41.184Z,66.92
2023-03-14T06:20:28.283Z,66.35
2023-03-14T06:22:59.689Z,65.94
2023-03-14T06:25:37.763Z,65.60
2023-03-14T06:28:17.532Z,65.38
2023-03-14T06:30:49.382Z,65.33
2023-03-14T06:33:21.605Z,65.26
2023-03-14T06:35:50.082Z,65.03
2023-03-14T06:38:22.608Z,64.94
2023-03-14T06:41:05.181Z,65.21
2023-03-14T06:43:46.397Z,65.20
2023-03-14T06:46:24.244Z,65.19
2023-03-14T06:49:01.741Z,64.62
2023-03-14T06:51:32.542Z,64.56
2023-03-14T06:54:11.554Z,64.44
2023-03-14T06:56:47.967Z,64.19
2023-03-14T06:59:24.561Z,64.42
2023-03-14T07:01:57.449Z,64.02
2023-03-14T07:04:34.075Z,63.84
2023-03-14T07:07:07.911Z,63.37
2023-03-14T07:09:41.032Z,63.04
2023-03-14T07:12:11.458Z,62.74
2023-03-14T07:14:40.906Z,62.58
2023-03-14T07:17:18.762Z,62.08
2023-03-14T07:19:49.245Z,62.33
2023-03-14T07:22:27.013Z,62.29
2023-03-14T07:24:56.283Z,61.96
2023-03-14T07:27:44.844Z,62.12
2023-03-14T07:30:19.946Z,61.87
2023-03-14T07:32:59.290Z,61.47
2023-03-14T07:35:38.575Z,61.66
2023-03-14T07:38:08.377Z,62.39
2023-03-14T07:40:46.434Z,62.28
2023-03-14T07:43:21.551Z,62.47
2023-03-14T07:45:59.083Z,63.07
2023-03-14T07:48:29.268Z,64.02
2023-03-14T07:51:03.085Z,63.94
2023-03-14T07:53:36.100Z,64.55
2023-03-14T07:56:05.314Z,64.54
2023-03-14T07:58:40.998Z,65.18
2023-03-14T08:01:15.544Z,65.66
2023-03-14T08:03:44.330Z,65.64
2023-03-14T08:06:22.529Z,65.59
2023-03-14T08:08:53.615Z,65.74
2023-03-14T08:11:29.248Z,66.08
2023-03-14T08:14:01.425Z,65.99
2023-03-14T08:16:30.707Z,66.42
2023-03-14T08:19:01.992Z,66.62
2023-03-14T08:21:30.332Z,66.84
2023-03-14T08:24:01.628Z,66.92
2023-03-14T08:26:32.121Z,67.14
2023-03-14T08:29:02.252Z,67.35
2023-03-14T08:31:33.097Z,67.53
2023-03-14T08:34:13.556Z,67.60
2023-03-14T08:36:46.238Z,67.54
2023-03-14T08:39:15.952Z,67.97
2023-03-14T08:41:48.304Z,67.70
2023-03-14T08:44:22.171Z,67.74
2023-03-14T08:46:53.801Z,67.68
2023-03-14T08:49:22.417Z,67.40
2023-03-14T08:51:53.523Z,67.57
2023-03-14T08:54:22.269Z,68.11
2023-03-14T08:56:53.925Z,68.05
2023-03-14T08:59:31.557Z,68.07
2023-03-14T09:02:05.064Z,68.13
2023-03-14T09:04:38.861Z,67.38
2023-03-14T09:07:07.028Z,67.92
2023-03-14T09:09:36.418Z,67.79
2023-03-14T09:12:06.865Z,67.53
2023-03-14T09:14:37.904Z,67.23
2023-03-14T09:17:11.968Z,67.21
2023-03-14T09:19:43.830Z,67.52
2023-03-14T09:22:12.857Z,67.30
2023-03-14T09:24:43.086Z,67.69
2023-03-14T09:27:13.340Z,67.67
2023-03-14T09:29:47.757Z,67.63
2023-03-14T09:32:19.420Z,67.70
2023-03-14T09:34:51.204Z,67.68
2023-03-14T09:37:22.885Z,67.68
2023-03-14T09:39:51.230Z,67.78
2023-03-14T09:42:27.737Z,67.93
2023-03-14T09:45:06.754Z,67.85
2023-03-14T09:47:35.811Z,68.16
2023-03-14T09:50:16.929Z,67.94
2023-03-14T09:52:51.661Z,68.40
2023-03-14T09:55:25.678Z,67.97
2023-03-14T09:57:57.858Z,67.83
2023-03-14T10:00:41.971Z,67.19
2023-03-14T10:03:31.446Z,67.29
2023-03-14T10:06:06.415Z,67.34
2023-03-14T10:08:45.132Z,67.05
2023-03-14T10:11:18.757Z,66.93
2023-03-14T10:14:04.858Z,66.58
2023-03-14T10:16:45.913Z,66.59
2023-03-14T10:19:18.049Z,66.05
2023-03-14T10:21:53.526Z,66.51
2023-03-14T10:24:26.582Z,66.83
2023-03-14T10:26:57.116Z,66.59
2023-03-14T10:29:25.344Z,66.76
2023-03-14T10:32:05.566Z,66.55
2023-03-14T10:34:36.285Z,67.05
2023-03-14T10:37:11.095Z,66.96
2023-03-14T10:39:46.526Z,65.67
2023-03-14T10:42:30.788Z,64.51
2023-03-14T10:45:02.262Z,64.38
2023-03-14T10:47:35.877Z,63.68
2023-03-14T10:50:28.274Z,65.67
2023-03-14T10:53:06.032Z,67.51
2023-03-14T10:55:47.430Z,68.58
2023-03-14T10:58:28.048Z,68.66
2023-03-14T11:01:09.590Z,68.74
2023-03-14T11:03:58.871Z,67.45
2023-03-14T11:06:35.402Z,66.42
2023-03-14T11:09:13.764Z,65.90
2023-03-14T11:11:48.501Z,65.59
2023-03-14T11:14:30.633Z,65.10
2023-03-14T11:17:05.261Z,65.20
2023-03-14T11:19:51.928Z,64.83
2023-03-14T11:22:29.238Z,64.57
2023-03-14T11:25:10.199Z,64.30
2023-03-14T11:27:46.592Z,64.27
2023-03-14T11:30:26.536Z,63.80
2023-03-14T11:33:03.738Z,62.42
2023-03-14T11:35:54.807Z,61.97
2023-03-14T11:38:32.617Z,62.27
2023-03-14T11:41:13.337Z,62.79
2023-03-14T11:43:50.742Z,62.90
2023-03-14T11:46:23.811Z,63.05
2023-03-14T11:49:05.002Z,63.40
2023-03-14T11:51:49.495Z,63.38
2023-03-14T11:54:25.922Z,63.74
2023-03-14T11:56:57.732Z,63.79
2023-03-14T11:59:31.979Z,64.53
2023-03-14T12:02:07.459Z,65.09
2023-03-14T12:04:49.125Z,65.05
2023-03-14T12:07:45.100Z,65.36
2023-03-14T12:10:21.481Z,64.94
2023-03-14T12:12:53.254Z,65.36
2023-03-14T12:15:26.560Z,65.00
2023-03-14T12:17:59.341Z,65.50
2023-03-14T12:20:32.882Z,66.25
2023-03-14T12:23:21.870Z,65.74
2023-03-14T12:25:50.733Z,65.92
2023-03-14T12:28:22.566Z,66.15
2023-03-14T12:30:51.740Z,66.44
2023-03-14T12:33:35.335Z,66.68
2023-03-14T12:36:44.680Z,66.07
2023-03-14T12:39:32.023Z,66.82
2023-03-14T12:42:09.122Z,66.75
2023-03-14T12:45:18.013Z,66.31
2023-03-14T12:48:16.972Z,66.47
2023-03-14T12:50:57.183Z,65.97
2023-03-14T12:54:04.095Z,66.49
2023-03-14T12:57:19.877Z,66.70
2023-03-14T12:59:50.911Z,66.20
2023-03-14T13:02:29.701Z,66.53
2023-03-14T13:05:18.117Z,66.08
2023-03-14T13:08:17.880Z,65.49
2023-03-14T13:10:50.905Z,65.63
2023-03-14T13:13:32.712Z,65.62
2023-03-14T13:16:10.341Z,65.53
2023-03-14T13:18:41.946Z,64.63
2023-03-14T13:21:15.401Z,65.36
2023-03-14T13:24:05.964Z,64.43
2023-03-14T13:26:37.462Z,64.43
2023-03-14T13:29:23.167Z,64.68
2023-03-14T13:31:59.822Z,65.25
2023-03-14T13:34:34.000Z,65.32
2023-03-14T13:37:05.222Z,65.10
2023-03-14T13:39:46.919Z,65.94
2023-03-14T13:42:26.429Z,65.54
2023-03-14T13:45:00.485Z,65.68
2023-03-14T13:47:31.240Z,66.17
2023-03-14T13:50:06.417Z,66.20
2023-03-14T13:52:47.227Z,66.10
2023-03-14T13:55:21.395Z,65.78
2023-03-14T13:57:58.358Z,65.29
2023-03-14T14:00:39.680Z,66.32
2023-03-14T14:03:12.746Z,65.98
2023-03-14T14:05:44.595Z,65.96
2023-03-14T14:08:15.804Z,66.16
2023-03-14T14:10:50.458Z,66.93
2023-03-14T14:13:24.423Z,67.82
2023-03-14T14:16:04.813Z,67.79
2023-03-14T14:18:36.024Z,67.71
2023-03-14T14:21:05.177Z,68.03
2023-03-14T14:23:40.254Z,68.50
2023-03-14T14:26:11.742Z,68.06
2023-03-14T14:28:42.360Z,68.56
2023-03-14T14:31:27.758Z,67.64
2023-03-14T14:34:04.929Z,67.12
2023-03-14T14:36:38.917Z,67.35
2023-03-14T14:39:21.905Z,67.16
2023-03-14T14:41:59.414Z,66.09
2023-03-14T14:44:35.667Z,66.74
2023-03-14T14:47:17.045Z,66.37
2023-03-14T14:49:47.000Z,66.36
2023-03-14T14:52:19.878Z,65.91
2023-03-14T14:54:51.634Z,65.33
2023-03-14T14:57:32.546Z,64.76
2023-03-14T15:00:12.010Z,65.01
2023-03-14T15:02:49.798Z,64.30
2023-03-14T15:05:29.359Z,64.50
2023-03-14T15:08:01.663Z,64.76
2023-03-14T15:10:33.576Z,64.60
2023-03-14T15:13:14.267Z,64.90
2023-03-14T15:15:44.390Z,65.20
2023-03-14T15:18:25.189Z,64.85
2023-03-14T15:20:54.387Z,65.51
2023-03-14T15:23:31.064Z,65.76
2023-03-14T15:26:07.548Z,65.37
2023-03-14T15:28:35.788Z,66.30
2023-03-14T15:31:08.071Z,68.41
2023-03-14T15:33:38.206Z,69.94
2023-03-14T15:36:15.149Z,70.50
2023-03-14T15:38:46.016Z,71.26
2023-03-14T15:41:24.354Z,72.02
2023-03-14T15:43:52.979Z,73.33
2023-03-14T15:46:23.099Z,73.57
2023-03-14T15:49:00.814Z,73.80
2023-03-14T15:51:43.929Z,74.25
2023-03-14T15:54:15.653Z,74.40
2023-03-14T15:56:45.354Z,74.60
2023-03-14T15:59:18.903Z,74.72
2023-03-14T16:01:57.035Z,75.29
2023-03-14T16:04:27.264Z,76.10
2023-03-14T16:06:59.736Z,76.21
2023-03-14T16:09:32.453Z,77.05
2023-03-14T16:12:08.139Z,78.52
2023-03-14T16:14:37.881Z,78.57
2023-03-14T16:17:11.806Z,79.26
2023-03-14T16:19:47.464Z,79.53
2023-03-14T16:22:19.746Z,79.71
2023-03-14T16:24:54.779Z,80.08
2023-03-14T16:27:38.066Z,80.73
2023-03-14T16:30:09.204Z,81.63
2023-03-14T16:32:38.869Z,81.93
2023-03-14T16:35:12.571Z,82.72
2023-03-14T16:37:44.754Z,82.62
2023-03-14T16:40:22.933Z,82.65
2023-03-14T16:43:14.830Z,83.65
2023-03-14T16:45:49.632Z,83.86
2023-03-14T16:48:21.543Z,83.80
2023-03-14T16:51:32.499Z,83.96
2023-03-14T16:54:01.309Z,84.36
2023-03-14T16:56:40.147Z,84.79
2023-03-14T16:59:11.576Z,84.85
2023-03-14T17:01:45.696Z,84.86
2023-03-14T17:04:31.634Z,85.34
2023-03-14T17:07:02.449Z,85.52
2023-03-14T17:09:34.615Z,84.86
2023-03-14T17:12:22.629Z,84.85
2023-03-14T17:15:02.666Z,85.54
2023-03-14T17:17:41.059Z,84.96
2023-03-14T17:20:13.665Z,84.26
2023-03-14T17:22:52.175Z,83.93
2023-03-14T17:25:33.311Z,84.01
2023-03-14T17:28:18.690Z,85.11
2023-03-14T17:30:51.154Z,84.76
2023-03-14T17:33:27.327Z,85.25
2023-03-14T17:36:18.511Z,85.39
2023-03-14T17:39:05.246Z,85.84
2023-03-14T17:41:36.300Z,86.52
2023-03-14T17:44:17.678Z,86.99
2023-03-14T17:46:54.256Z,87.66
2023-03-14T17:49:36.290Z,87.57
2023-03-14T17:52:09.018Z,88.28
2023-03-14T17:54:58.572Z,88.73
2023-03-14T17:57:40.115Z,88.90
2023-03-14T18:00:20.061Z,89.60
2023-03-14T18:03:12.206Z,89.34
2023-03-14T18:05:49.677Z,88.08
2023-03-14T18:08:38.965Z,88.62
2023-03-14T18:11:40.657Z,88.84
2023-03-14T18:14:22.093Z,89.80
2023-03-14T18:17:06.343Z,90.15
2023-03-14T18:19:40.814Z,89.73
2023-03-14T18:22:23.957Z,89.83
2023-03-14T18:25:11.692Z,89.87
2023-03-14T18:28:03.266Z,90.06
2023-03-14T18:30:37.423Z,89.87
2023-03-14T18:33:13.988Z,89.66
2023-03-14T18:35:50.274Z,88.74
2023-03-14T18:38:30.335Z,80.58
2023-03-14T18:41:27.636Z,77.45
2023-03-14T18:44:04.519Z,74.08
2023-03-14T18:46:37.047Z,74.57
2023-03-14T18:49:09.637Z,74.05
2023-03-14T18:51:58.370Z,73.17
2023-03-14T18:54:32.559Z,71.74
2023-03-14T18:57:18.581Z,70.93
2023-03-14T18:59:53.365Z,72.86
2023-03-14T19:02:31.873Z,74.56
2023-03-14T19:05:06.244Z,75.43
2023-03-14T19:07:54.435Z,75.69
2023-03-14T19:10:36.495Z,76.07
2023-03-14T19:13:20.597Z,76.13
2023-03-14T19:16:11.592Z,75.98
2023-03-14T19:18:48.118Z,76.09
2023-03-14T19:21:39.725Z,75.67
2023-03-14T19:24:10.270Z,76.29
2023-03-14T19:27:00.482Z,77.40
2023-03-14T19:29:59.052Z,77.27
2023-03-14T19:32:56.481Z,77.44
2023-03-14T19:35:32.056Z,77.60
2023-03-14T19:38:06.180Z,76.86
2023-03-14T19:40:43.711Z,76.10
2023-03-14T19:43:19.239Z,75.45
2023-03-14T19:45:58.723Z,75.11
2023-03-14T19:48:32.270Z,75.01
2023-03-14T19:51:17.085Z,74.87
2023-03-14T19:53:50.954Z,74.65
2023-03-14T19:56:24.538Z,74.21
2023-03-14T19:59:03.784Z,74.32
2023-03-14T20:01:44.785Z,73.45
2023-03-14T20:04:39.210Z,73.04
2023-03-14T20:07:34.178Z,72.90
2023-03-14T20:10:08.348Z,72.04
2023-03-14T20:12:43.159Z,72.03
2023-03-14T20:15:22.478Z,71.88
2023-03-14T20:18:04.956Z,71.21
2023-03-14T20:20:45.109Z,70.46
2023-03-14T20:23:18.121Z,70.60
2023-03-14T20:26:01.132Z,70.52
2023-03-14T20:28:47.833Z,70.69
2023-03-14T20:31:27.097Z,70.66
2023-03-14T20:34:01.122Z,71.12
2023-03-14T20:36:35.492Z,70.73
2023-03-14T20:39:23.842Z,69.90
2023-03-14T20:41:59.006Z,67.91
2023-03-14T20:44:36.152Z,67.13
2023-03-14T20:47:14.457Z,66.98
2023-03-14T20:49:46.992Z,67.00
2023-03-14T20:52:32.826Z,67.28
2023-03-14T20:55:18.091Z,66.59
2023-03-14T20:57:56.587Z,66.60
2023-03-14T21:00:32.424Z,65.09
2023-03-14T21:03:11.560Z,63.89
2023-03-14T21:05:47.532Z,62.64
2023-03-14T21:08:23.602Z,62.32
2023-03-14T21:11:02.127Z,61.74
2023-03-14T21:13:33.815Z,61.27
2023-03-14T21:16:21.808Z,60.69
2023-03-14T21:19:03.101Z,59.57
2023-03-14T21:21:51.301Z,58.94
2023-03-14T21:24:26.487Z,58.53
2023-03-14T21:27:03.862Z,57.92
2023-03-14T21:29:37.384Z,57.31
2023-03-14T21:32:15.647Z,56.19
2023-03-14T21:34:57.824Z,55.91
2023-03-14T21:37:30.770Z,55.31
2023-03-14T21:40:08.399Z,55.04
2023-03-14T21:42:43.362Z,54.85
2023-03-14T21:45:16.760Z,54.77
2023-03-14T21:47:50.191Z,54.78
2023-03-14T21:50:26.023Z,54.34
2023-03-14T21:52:58.053Z,54.78
2023-03-14T21:55:32.989Z,54.94
2023-03-14T21:58:10.866Z,54.67
2023-03-14T22:00:49.660Z,54.32
2023-03-14T22:03:23.506Z,54.45
2023-03-14T22:05:52.147Z,54.32
2023-03-14T22:08:24.728Z,53.85
2023-03-14T22:11:00.226Z,53.48
2023-03-14T22:13:29.795Z,52.99
2023-03-14T22:15:58.468Z,52.94
2023-03-14T22:18:28.387Z,52.02
2023-03-14T22:21:00.131Z,52.15
2023-03-14T22:23:29.973Z,51.98
2023-03-14T22:26:16.451Z,51.74
2023-03-14T22:28:49.829Z,51.91
2023-03-14T22:31:22.315Z,51.10
2023-03-14T22:33:55.871Z,51.57
2023-03-14T22:36:36.142Z,50.87
2023-03-14T22:39:07.889Z,51.47
2023-03-14T22:41:39.965Z,51.08
2023-03-14T22:44:18.915Z,50.78
2023-03-14T22:46:47.298Z,50.72
2023-03-14T22:49:25.596Z,50.72
2023-03-14T22:51:56.638Z,51.13
2023-03-14T22:54:36.797Z,51.11
2023-03-14T22:57:09.195Z,50.96
2023-03-14T22:59:38.914Z,50.88
2023-03-14T23:02:11.119Z,51.47
2023-03-14T23:04:42.744Z,51.49
2023-03-14T23:07:11.649Z,51.28
2023-03-14T23:09:49.378Z,51.20
2023-03-14T23:12:24.897Z,51.59
2023-03-14T23:15:06.135Z,51.30
2023-03-14T23:17:44.081Z,51.05
2023-03-14T23:20:25.586Z,51.32
2023-03-14T23:23:02.764Z,51.54
2023-03-14T23:25:33.739Z,51.43
2023-03-14T23:28:11.738Z,51.54
2023-03-14T23:30:41.951Z,51.34
2023-03-14T23:33:17.600Z,51.74
2023-03-14T23:35:48.634Z,51.95
2023-03-14T23:38:27.584Z,51.28
2023-03-14T23:43:49.428Z,52.79
2023-03-14T23:46:28.836Z,53.35
2023-03-14T23:48:58.612Z,53.93
2023-03-14T23:51:28.631Z,54.57
2023-03-14T23:53:56.874Z,54.85
2023-03-14T23:56:27.928Z,55.37
2023-03-14T23:58:58.643Z,55.26
